sensor_id;sensor_type;location;lat;lon;timestamp;P1;durP1;ratioP1;P2;durP2;ratioP2
21091;SDS011;10704;42.678;23.288;2023-12-20T00:00:44;149.57;;;75.93;;
21091;SDS011;10704;42.678;23.288;2023-12-20T00:03:10;138.32;;;70.38;;
21091;SDS011;10704;42.678;23.288;2023-12-20T00:05:38;131.82;;;65.18;;
21091;SDS011;10704;42.678;23.288;2023-12-20T00:08:07;123.80;;;60.63;;
21091;SDS011;10704;42.678;23.288;2023-12-20T00:10:33;126.38;;;60.42;;
21091;SDS011;10704;42.678;23.288;2023-12-20T00:13:06;132.63;;;67.88;;
21091;SDS011;10704;42.678;23.288;2023-12-20T00:15:35;139.88;;;70.00;;
21091;SDS011;10704;42.678;23.288;2023-12-20T00:18:00;136.38;;;66.38;;
21091;SDS011;10704;42.678;23.288;2023-12-20T00:20:27;140.48;;;74.00;;
21091;SDS011;10704;42.678;23.288;2023-12-20T00:22:56;129.05;;;66.80;;
21091;SDS011;10704;42.678;23.288;2023-12-20T00:25:26;141.25;;;72.03;;
21091;SDS011;10704;42.678;23.288;2023-12-20T00:27:54;138.95;;;72.88;;
21091;SDS011;10704;42.678;23.288;2023-12-20T00:30:20;139.25;;;73.93;;
21091;SDS011;10704;42.678;23.288;2023-12-20T00:32:51;149.85;;;74.22;;
21091;SDS011;10704;42.678;23.288;2023-12-20T00:35:23;141.60;;;71.30;;
21091;SDS011;10704;42.678;23.288;2023-12-20T00:37:54;141.65;;;69.90;;
21091;SDS011;10704;42.678;23.288;2023-12-20T00:40:20;154.57;;;76.40;;
21091;SDS011;10704;42.678;23.288;2023-12-20T00:42:46;134.98;;;67.25;;
21091;SDS011;10704;42.678;23.288;2023-12-20T00:45:21;127.22;;;65.75;;
21091;SDS011;10704;42.678;23.288;2023-12-20T00:47:54;128.40;;;65.57;;
21091;SDS011;10704;42.678;23.288;2023-12-20T00:50:24;136.95;;;67.78;;
21091;SDS011;10704;42.678;23.288;2023-12-20T00:52:54;130.20;;;66.50;;
21091;SDS011;10704;42.678;23.288;2023-12-20T00:55:20;124.43;;;66.72;;
21091;SDS011;10704;42.678;23.288;2023-12-20T00:57:49;120.78;;;66.50;;
21091;SDS011;10704;42.678;23.288;2023-12-20T01:00:21;132.40;;;65.38;;
21091;SDS011;10704;42.678;23.288;2023-12-20T01:02:49;131.70;;;67.10;;
21091;SDS011;10704;42.678;23.288;2023-12-20T01:05:21;124.65;;;64.63;;
21091;SDS011;10704;42.678;23.288;2023-12-20T01:07:49;117.43;;;60.90;;
21091;SDS011;10704;42.678;23.288;2023-12-20T01:10:19;114.07;;;62.47;;
21091;SDS011;10704;42.678;23.288;2023-12-20T01:12:47;121.13;;;63.47;;
21091;SDS011;10704;42.678;23.288;2023-12-20T01:15:18;131.43;;;65.25;;
21091;SDS011;10704;42.678;23.288;2023-12-20T01:17:44;122.00;;;61.35;;
21091;SDS011;10704;42.678;23.288;2023-12-20T01:20:13;126.38;;;64.60;;
21091;SDS011;10704;42.678;23.288;2023-12-20T01:22:41;113.80;;;61.15;;
21091;SDS011;10704;42.678;23.288;2023-12-20T01:25:08;123.63;;;65.75;;
21091;SDS011;10704;42.678;23.288;2023-12-20T01:27:39;121.97;;;59.40;;
21091;SDS011;10704;42.678;23.288;2023-12-20T01:30:08;123.55;;;60.85;;
21091;SDS011;10704;42.678;23.288;2023-12-20T01:32:37;120.07;;;66.85;;
21091;SDS011;10704;42.678;23.288;2023-12-20T01:35:05;123.18;;;66.78;;
21091;SDS011;10704;42.678;23.288;2023-12-20T01:37:34;99.95;;;53.28;;
21091;SDS011;10704;42.678;23.288;2023-12-20T01:40:03;90.50;;;45.78;;
21091;SDS011;10704;42.678;23.288;2023-12-20T01:42:35;80.15;;;41.85;;
21091;SDS011;10704;42.678;23.288;2023-12-20T01:45:03;78.03;;;39.35;;
21091;SDS011;10704;42.678;23.288;2023-12-20T01:47:34;72.15;;;38.40;;
21091;SDS011;10704;42.678;23.288;2023-12-20T01:50:01;74.10;;;39.92;;
21091;SDS011;10704;42.678;23.288;2023-12-20T01:52:32;80.13;;;39.78;;
21091;SDS011;10704;42.678;23.288;2023-12-20T01:55:05;92.43;;;45.63;;
21091;SDS011;10704;42.678;23.288;2023-12-20T01:57:41;95.25;;;47.28;;
21091;SDS011;10704;42.678;23.288;2023-12-20T02:00:12;78.70;;;38.00;;
21091;SDS011;10704;42.678;23.288;2023-12-20T02:02:40;67.35;;;33.58;;
21091;SDS011;10704;42.678;23.288;2023-12-20T02:05:11;74.55;;;40.63;;
21091;SDS011;10704;42.678;23.288;2023-12-20T02:07:43;82.90;;;44.70;;
21091;SDS011;10704;42.678;23.288;2023-12-20T02:10:16;79.88;;;45.05;;
21091;SDS011;10704;42.678;23.288;2023-12-20T02:12:43;88.60;;;47.13;;
21091;SDS011;10704;42.678;23.288;2023-12-20T02:15:09;91.30;;;47.47;;
21091;SDS011;10704;42.678;23.288;2023-12-20T02:17:43;104.65;;;55.50;;
21091;SDS011;10704;42.678;23.288;2023-12-20T02:20:13;107.68;;;57.15;;
21091;SDS011;10704;42.678;23.288;2023-12-20T02:22:39;134.13;;;67.78;;
21091;SDS011;10704;42.678;23.288;2023-12-20T02:25:05;120.70;;;62.72;;
21091;SDS011;10704;42.678;23.288;2023-12-20T02:27:38;99.82;;;48.33;;
21091;SDS011;10704;42.678;23.288;2023-12-20T02:30:05;69.20;;;37.60;;
21091;SDS011;10704;42.678;23.288;2023-12-20T02:32:34;70.35;;;32.58;;
21091;SDS011;10704;42.678;23.288;2023-12-20T02:35:00;54.35;;;27.48;;
21091;SDS011;10704;42.678;23.288;2023-12-20T02:37:29;58.47;;;28.70;;
21091;SDS011;10704;42.678;23.288;2023-12-20T02:40:00;67.30;;;32.08;;
21091;SDS011;10704;42.678;23.288;2023-12-20T02:42:26;42.40;;;20.35;;
21091;SDS011;10704;42.678;23.288;2023-12-20T02:44:54;43.08;;;21.15;;
21091;SDS011;10704;42.678;23.288;2023-12-20T02:47:23;45.60;;;21.48;;
21091;SDS011;10704;42.678;23.288;2023-12-20T02:49:54;44.45;;;23.90;;
21091;SDS011;10704;42.678;23.288;2023-12-20T02:52:25;44.50;;;21.25;;
21091;SDS011;10704;42.678;23.288;2023-12-20T02:54:56;45.33;;;21.23;;
21091;SDS011;10704;42.678;23.288;2023-12-20T02:57:25;46.53;;;22.73;;
21091;SDS011;10704;42.678;23.288;2023-12-20T02:59:58;44.65;;;22.23;;
21091;SDS011;10704;42.678;23.288;2023-12-20T03:02:27;46.25;;;23.45;;
21091;SDS011;10704;42.678;23.288;2023-12-20T03:04:58;48.45;;;24.95;;
21091;SDS011;10704;42.678;23.288;2023-12-20T03:07:26;49.03;;;25.42;;
21091;SDS011;10704;42.678;23.288;2023-12-20T03:09:58;50.45;;;25.48;;
21091;SDS011;10704;42.678;23.288;2023-12-20T03:12:28;54.42;;;24.45;;
21091;SDS011;10704;42.678;23.288;2023-12-20T03:14:59;49.35;;;25.33;;
21091;SDS011;10704;42.678;23.288;2023-12-20T03:17:28;59.10;;;30.30;;
21091;SDS011;10704;42.678;23.288;2023-12-20T03:19:56;75.43;;;37.58;;
21091;SDS011;10704;42.678;23.288;2023-12-20T03:22:25;85.00;;;42.60;;
21091;SDS011;10704;42.678;23.288;2023-12-20T03:24:54;81.00;;;43.03;;
21091;SDS011;10704;42.678;23.288;2023-12-20T03:27:22;91.07;;;44.78;;
21091;SDS011;10704;42.678;23.288;2023-12-20T03:29:53;86.18;;;39.58;;
21091;SDS011;10704;42.678;23.288;2023-12-20T03:32:24;67.03;;;34.50;;
21091;SDS011;10704;42.678;23.288;2023-12-20T03:34:55;84.00;;;42.05;;
21091;SDS011;10704;42.678;23.288;2023-12-20T03:37:28;90.22;;;45.05;;
21091;SDS011;10704;42.678;23.288;2023-12-20T03:39:58;79.65;;;40.47;;
21091;SDS011;10704;42.678;23.288;2023-12-20T03:42:26;79.40;;;41.75;;
21091;SDS011;10704;42.678;23.288;2023-12-20T03:44:53;99.85;;;48.72;;
21091;SDS011;10704;42.678;23.288;2023-12-20T03:47:25;116.43;;;54.42;;
21091;SDS011;10704;42.678;23.288;2023-12-20T03:49:55;102.05;;;53.53;;
21091;SDS011;10704;42.678;23.288;2023-12-20T03:52:27;110.85;;;56.25;;
21091;SDS011;10704;42.678;23.288;2023-12-20T03:55:01;110.40;;;55.72;;
21091;SDS011;10704;42.678;23.288;2023-12-20T03:57:30;101.90;;;51.72;;
21091;SDS011;10704;42.678;23.288;2023-12-20T03:59:58;108.47;;;52.08;;
21091;SDS011;10704;42.678;23.288;2023-12-20T04:02:40;97.45;;;51.38;;
21091;SDS011;10704;42.678;23.288;2023-12-20T04:05:07;92.80;;;50.03;;
21091;SDS011;10704;42.678;23.288;2023-12-20T04:07:41;101.35;;;52.03;;
21091;SDS011;10704;42.678;23.288;2023-12-20T04:10:07;106.50;;;52.90;;
21091;SDS011;10704;42.678;23.288;2023-12-20T04:12:34;107.63;;;52.55;;
21091;SDS011;10704;42.678;23.288;2023-12-20T04:15:08;105.13;;;53.97;;
21091;SDS011;10704;42.678;23.288;2023-12-20T04:17:37;105.95;;;51.63;;
21091;SDS011;10704;42.678;23.288;2023-12-20T04:20:05;109.85;;;54.08;;
21091;SDS011;10704;42.678;23.288;2023-12-20T04:22:40;118.82;;;61.03;;
21091;SDS011;10704;42.678;23.288;2023-12-20T04:25:10;121.82;;;57.05;;
21091;SDS011;10704;42.678;23.288;2023-12-20T04:27:41;131.88;;;64.70;;
21091;SDS011;10704;42.678;23.288;2023-12-20T04:30:09;132.30;;;65.57;;
21091;SDS011;10704;42.678;23.288;2023-12-20T04:32:41;144.63;;;70.82;;
21091;SDS011;10704;42.678;23.288;2023-12-20T04:35:07;154.82;;;74.95;;
21091;SDS011;10704;42.678;23.288;2023-12-20T04:37:38;158.32;;;78.03;;
21091;SDS011;10704;42.678;23.288;2023-12-20T04:40:08;152.40;;;75.03;;
21091;SDS011;10704;42.678;23.288;2023-12-20T04:42:39;142.05;;;70.10;;
21091;SDS011;10704;42.678;23.288;2023-12-20T04:45:05;141.68;;;71.70;;
21091;SDS011;10704;42.678;23.288;2023-12-20T04:47:36;153.88;;;75.03;;
21091;SDS011;10704;42.678;23.288;2023-12-20T04:50:05;142.43;;;69.43;;
21091;SDS011;10704;42.678;23.288;2023-12-20T04:52:37;140.20;;;70.63;;
21091;SDS011;10704;42.678;23.288;2023-12-20T04:55:08;148.73;;;71.07;;
21091;SDS011;10704;42.678;23.288;2023-12-20T04:57:35;130.48;;;65.28;;
21091;SDS011;10704;42.678;23.288;2023-12-20T05:00:06;125.05;;;61.03;;
21091;SDS011;10704;42.678;23.288;2023-12-20T05:02:34;104.88;;;51.10;;
21091;SDS011;10704;42.678;23.288;2023-12-20T05:05:04;94.40;;;48.17;;
21091;SDS011;10704;42.678;23.288;2023-12-20T05:07:33;85.75;;;42.58;;
21091;SDS011;10704;42.678;23.288;2023-12-20T05:10:02;93.50;;;42.88;;
21091;SDS011;10704;42.678;23.288;2023-12-20T05:12:33;92.47;;;42.70;;
21091;SDS011;10704;42.678;23.288;2023-12-20T05:14:59;88.32;;;43.08;;
21091;SDS011;10704;42.678;23.288;2023-12-20T05:17:30;96.97;;;44.92;;
21091;SDS011;10704;42.678;23.288;2023-12-20T05:20:02;86.93;;;42.38;;
21091;SDS011;10704;42.678;23.288;2023-12-20T05:22:31;89.38;;;42.25;;
21091;SDS011;10704;42.678;23.288;2023-12-20T05:25:00;99.57;;;46.10;;
21091;SDS011;10704;42.678;23.288;2023-12-20T05:27:29;98.13;;;44.13;;
21091;SDS011;10704;42.678;23.288;2023-12-20T05:30:06;93.82;;;43.47;;
21091;SDS011;10704;42.678;23.288;2023-12-20T05:32:37;104.63;;;46.83;;
21091;SDS011;10704;42.678;23.288;2023-12-20T05:35:07;104.72;;;44.17;;
21091;SDS011;10704;42.678;23.288;2023-12-20T05:37:39;106.32;;;47.05;;
21091;SDS011;10704;42.678;23.288;2023-12-20T05:40:10;120.43;;;49.28;;
21091;SDS011;10704;42.678;23.288;2023-12-20T05:42:38;136.90;;;51.58;;
21091;SDS011;10704;42.678;23.288;2023-12-20T05:45:12;134.68;;;49.70;;
21091;SDS011;10704;42.678;23.288;2023-12-20T05:47:45;118.93;;;49.75;;
21091;SDS011;10704;42.678;23.288;2023-12-20T05:50:14;125.72;;;50.10;;
21091;SDS011;10704;42.678;23.288;2023-12-20T05:52:43;122.85;;;49.47;;
21091;SDS011;10704;42.678;23.288;2023-12-20T05:55:11;129.85;;;51.65;;
21091;SDS011;10704;42.678;23.288;2023-12-20T05:57:40;118.85;;;50.45;;
21091;SDS011;10704;42.678;23.288;2023-12-20T06:00:07;122.05;;;50.92;;
21091;SDS011;10704;42.678;23.288;2023-12-20T06:02:39;127.20;;;52.80;;
21091;SDS011;10704;42.678;23.288;2023-12-20T06:05:10;133.50;;;53.00;;
21091;SDS011;10704;42.678;23.288;2023-12-20T06:07:39;130.73;;;55.42;;
21091;SDS011;10704;42.678;23.288;2023-12-20T06:10:05;150.02;;;57.10;;
21091;SDS011;10704;42.678;23.288;2023-12-20T06:12:31;141.75;;;57.97;;
21091;SDS011;10704;42.678;23.288;2023-12-20T06:15:03;153.43;;;58.17;;
21091;SDS011;10704;42.678;23.288;2023-12-20T06:17:31;150.98;;;60.08;;
21091;SDS011;10704;42.678;23.288;2023-12-20T06:20:01;139.27;;;56.20;;
21091;SDS011;10704;42.678;23.288;2023-12-20T06:22:35;158.07;;;60.60;;
21091;SDS011;10704;42.678;23.288;2023-12-20T06:25:04;184.23;;;62.70;;
21091;SDS011;10704;42.678;23.288;2023-12-20T06:27:36;151.52;;;59.10;;
21091;SDS011;10704;42.678;23.288;2023-12-20T06:30:04;150.40;;;59.95;;
21091;SDS011;10704;42.678;23.288;2023-12-20T06:32:37;153.32;;;56.47;;
21091;SDS011;10704;42.678;23.288;2023-12-20T06:35:08;175.82;;;58.45;;
21091;SDS011;10704;42.678;23.288;2023-12-20T06:37:39;183.32;;;60.22;;
21091;SDS011;10704;42.678;23.288;2023-12-20T06:40:13;156.43;;;61.15;;
21091;SDS011;10704;42.678;23.288;2023-12-20T06:42:45;166.43;;;59.95;;
21091;SDS011;10704;42.678;23.288;2023-12-20T06:45:12;145.05;;;56.88;;
21091;SDS011;10704;42.678;23.288;2023-12-20T06:47:44;146.98;;;57.72;;
21091;SDS011;10704;42.678;23.288;2023-12-20T06:50:10;154.60;;;58.15;;
21091;SDS011;10704;42.678;23.288;2023-12-20T06:52:38;169.53;;;62.47;;
21091;SDS011;10704;42.678;23.288;2023-12-20T06:55:09;160.27;;;60.77;;
21091;SDS011;10704;42.678;23.288;2023-12-20T06:57:40;155.13;;;59.67;;
21091;SDS011;10704;42.678;23.288;2023-12-20T07:00:08;151.90;;;58.67;;
21091;SDS011;10704;42.678;23.288;2023-12-20T07:02:39;146.50;;;63.07;;
21091;SDS011;10704;42.678;23.288;2023-12-20T07:05:07;156.13;;;64.18;;
21091;SDS011;10704;42.678;23.288;2023-12-20T07:07:33;156.18;;;64.57;;
21091;SDS011;10704;42.678;23.288;2023-12-20T07:10:02;168.45;;;70.32;;
21091;SDS011;10704;42.678;23.288;2023-12-20T07:12:29;174.77;;;69.78;;
21091;SDS011;10704;42.678;23.288;2023-12-20T07:14:57;175.40;;;70.53;;
21091;SDS011;10704;42.678;23.288;2023-12-20T07:17:30;181.02;;;70.05;;
21091;SDS011;10704;42.678;23.288;2023-12-20T07:20:00;167.80;;;68.22;;
21091;SDS011;10704;42.678;23.288;2023-12-20T07:22:38;163.82;;;67.30;;
21091;SDS011;10704;42.678;23.288;2023-12-20T07:25:07;162.63;;;70.57;;
21091;SDS011;10704;42.678;23.288;2023-12-20T07:27:38;168.95;;;70.30;;
21091;SDS011;10704;42.678;23.288;2023-12-20T07:30:04;170.73;;;66.88;;
21091;SDS011;10704;42.678;23.288;2023-12-20T07:32:36;153.13;;;64.40;;
21091;SDS011;10704;42.678;23.288;2023-12-20T07:35:05;150.75;;;58.97;;
21091;SDS011;10704;42.678;23.288;2023-12-20T07:37:39;165.02;;;65.38;;
21091;SDS011;10704;42.678;23.288;2023-12-20T07:40:07;156.80;;;63.83;;
21091;SDS011;10704;42.678;23.288;2023-12-20T07:42:41;158.27;;;60.75;;
21091;SDS011;10704;42.678;23.288;2023-12-20T07:45:10;160.35;;;62.60;;
21091;SDS011;10704;42.678;23.288;2023-12-20T07:47:41;155.23;;;62.75;;
21091;SDS011;10704;42.678;23.288;2023-12-20T07:50:15;167.30;;;61.80;;
21091;SDS011;10704;42.678;23.288;2023-12-20T07:52:44;166.65;;;65.22;;
21091;SDS011;10704;42.678;23.288;2023-12-20T07:55:17;172.68;;;68.20;;
21091;SDS011;10704;42.678;23.288;2023-12-20T07:57:48;167.57;;;67.60;;
21091;SDS011;10704;42.678;23.288;2023-12-20T08:00:16;176.13;;;66.30;;
21091;SDS011;10704;42.678;23.288;2023-12-20T08:02:50;163.13;;;66.18;;
21091;SDS011;10704;42.678;23.288;2023-12-20T08:05:18;167.88;;;65.05;;
21091;SDS011;10704;42.678;23.288;2023-12-20T08:07:47;162.25;;;68.38;;
21091;SDS011;10704;42.678;23.288;2023-12-20T08:10:13;163.38;;;68.50;;
21091;SDS011;10704;42.678;23.288;2023-12-20T08:12:45;174.23;;;69.72;;
21091;SDS011;10704;42.678;23.288;2023-12-20T08:15:16;174.43;;;73.00;;
21091;SDS011;10704;42.678;23.288;2023-12-20T08:17:58;174.55;;;67.88;;
21091;SDS011;10704;42.678;23.288;2023-12-20T08:20:27;177.25;;;77.47;;
21091;SDS011;10704;42.678;23.288;2023-12-20T08:22:58;170.05;;;75.72;;
21091;SDS011;10704;42.678;23.288;2023-12-20T08:25:27;161.30;;;70.55;;
21091;SDS011;10704;42.678;23.288;2023-12-20T08:28:00;160.43;;;67.00;;
21091;SDS011;10704;42.678;23.288;2023-12-20T08:30:30;162.38;;;67.82;;
21091;SDS011;10704;42.678;23.288;2023-12-20T08:33:00;143.30;;;60.65;;
21091;SDS011;10704;42.678;23.288;2023-12-20T08:35:28;142.88;;;61.13;;
21091;SDS011;10704;42.678;23.288;2023-12-20T08:37:57;150.95;;;62.30;;
21091;SDS011;10704;42.678;23.288;2023-12-20T08:40:28;148.77;;;61.78;;
21091;SDS011;10704;42.678;23.288;2023-12-20T08:42:56;159.60;;;63.70;;
21091;SDS011;10704;42.678;23.288;2023-12-20T08:45:24;148.05;;;64.10;;
21091;SDS011;10704;42.678;23.288;2023-12-20T08:47:53;159.30;;;66.75;;
21091;SDS011;10704;42.678;23.288;2023-12-20T08:50:19;142.32;;;64.60;;
21091;SDS011;10704;42.678;23.288;2023-12-20T08:52:47;159.00;;;66.63;;
21091;SDS011;10704;42.678;23.288;2023-12-20T08:55:16;157.93;;;66.57;;
21091;SDS011;10704;42.678;23.288;2023-12-20T08:57:48;156.25;;;62.60;;
21091;SDS011;10704;42.678;23.288;2023-12-20T09:00:19;145.27;;;62.67;;
21091;SDS011;10704;42.678;23.288;2023-12-20T09:02:52;153.00;;;65.32;;
21091;SDS011;10704;42.678;23.288;2023-12-20T09:05:22;142.23;;;64.25;;
21091;SDS011;10704;42.678;23.288;2023-12-20T09:07:48;151.77;;;64.50;;
21091;SDS011;10704;42.678;23.288;2023-12-20T09:10:22;157.73;;;62.92;;
21091;SDS011;10704;42.678;23.288;2023-12-20T09:12:53;156.48;;;68.60;;
21091;SDS011;10704;42.678;23.288;2023-12-20T09:15:26;155.43;;;66.75;;
21091;SDS011;10704;42.678;23.288;2023-12-20T09:17:55;144.70;;;64.53;;
21091;SDS011;10704;42.678;23.288;2023-12-20T09:20:24;152.10;;;64.68;;
21091;SDS011;10704;42.678;23.288;2023-12-20T09:22:55;151.52;;;66.75;;
21091;SDS011;10704;42.678;23.288;2023-12-20T09:25:24;143.73;;;66.93;;
21091;SDS011;10704;42.678;23.288;2023-12-20T09:27:58;148.57;;;63.47;;
21091;SDS011;10704;42.678;23.288;2023-12-20T09:30:26;148.50;;;65.20;;
21091;SDS011;10704;42.678;23.288;2023-12-20T09:32:52;137.73;;;63.00;;
21091;SDS011;10704;42.678;23.288;2023-12-20T09:35:18;147.57;;;66.65;;
21091;SDS011;10704;42.678;23.288;2023-12-20T09:37:49;134.23;;;63.58;;
21091;SDS011;10704;42.678;23.288;2023-12-20T09:40:17;138.02;;;64.55;;
21091;SDS011;10704;42.678;23.288;2023-12-20T09:42:54;139.43;;;65.50;;
21091;SDS011;10704;42.678;23.288;2023-12-20T09:45:33;146.95;;;65.07;;
21091;SDS011;10704;42.678;23.288;2023-12-20T09:48:04;168.10;;;68.72;;
21091;SDS011;10704;42.678;23.288;2023-12-20T09:50:32;158.38;;;67.38;;
21091;SDS011;10704;42.678;23.288;2023-12-20T09:53:03;140.20;;;66.13;;
21091;SDS011;10704;42.678;23.288;2023-12-20T09:55:38;140.98;;;63.47;;
21091;SDS011;10704;42.678;23.288;2023-12-20T09:58:06;141.10;;;66.05;;
21091;SDS011;10704;42.678;23.288;2023-12-20T10:00:37;133.32;;;62.75;;
21091;SDS011;10704;42.678;23.288;2023-12-20T10:03:08;139.68;;;65.50;;
21091;SDS011;10704;42.678;23.288;2023-12-20T10:05:40;132.88;;;63.55;;
21091;SDS011;10704;42.678;23.288;2023-12-20T10:08:12;128.10;;;63.60;;
21091;SDS011;10704;42.678;23.288;2023-12-20T10:10:40;139.45;;;66.80;;
21091;SDS011;10704;42.678;23.288;2023-12-20T10:13:12;128.45;;;60.30;;
21091;SDS011;10704;42.678;23.288;2023-12-20T10:15:43;130.70;;;61.25;;
21091;SDS011;10704;42.678;23.288;2023-12-20T10:18:12;134.75;;;62.42;;
21091;SDS011;10704;42.678;23.288;2023-12-20T10:20:42;129.05;;;64.43;;
21091;SDS011;10704;42.678;23.288;2023-12-20T10:23:13;129.57;;;63.35;;
21091;SDS011;10704;42.678;23.288;2023-12-20T10:25:55;119.07;;;63.40;;
21091;SDS011;10704;42.678;23.288;2023-12-20T10:28:24;129.77;;;64.53;;
21091;SDS011;10704;42.678;23.288;2023-12-20T10:30:55;130.52;;;65.30;;
21091;SDS011;10704;42.678;23.288;2023-12-20T10:33:25;128.60;;;66.15;;
21091;SDS011;10704;42.678;23.288;2023-12-20T10:35:52;123.35;;;64.90;;
21091;SDS011;10704;42.678;23.288;2023-12-20T10:38:21;129.63;;;67.55;;
21091;SDS011;10704;42.678;23.288;2023-12-20T10:40:48;135.90;;;65.68;;
21091;SDS011;10704;42.678;23.288;2023-12-20T10:43:19;120.20;;;65.25;;
21091;SDS011;10704;42.678;23.288;2023-12-20T10:45:51;135.75;;;65.07;;
21091;SDS011;10704;42.678;23.288;2023-12-20T10:48:18;128.80;;;65.22;;
21091;SDS011;10704;42.678;23.288;2023-12-20T10:50:46;127.63;;;64.65;;
21091;SDS011;10704;42.678;23.288;2023-12-20T10:53:20;131.73;;;62.90;;
21091;SDS011;10704;42.678;23.288;2023-12-20T10:55:46;127.07;;;63.90;;
21091;SDS011;10704;42.678;23.288;2023-12-20T10:58:23;127.32;;;65.32;;
21091;SDS011;10704;42.678;23.288;2023-12-20T11:00:56;137.10;;;67.28;;
21091;SDS011;10704;42.678;23.288;2023-12-20T11:03:29;140.40;;;68.78;;
21091;SDS011;10704;42.678;23.288;2023-12-20T11:06:04;131.23;;;66.60;;
21091;SDS011;10704;42.678;23.288;2023-12-20T11:08:42;137.90;;;68.03;;
21091;SDS011;10704;42.678;23.288;2023-12-20T11:14:00;139.80;;;69.15;;
21091;SDS011;10704;42.678;23.288;2023-12-20T11:16:37;135.15;;;69.70;;
21091;SDS011;10704;42.678;23.288;2023-12-20T11:19:11;142.38;;;67.70;;
21091;SDS011;10704;42.678;23.288;2023-12-20T11:21:45;140.13;;;68.03;;
21091;SDS011;10704;42.678;23.288;2023-12-20T11:24:21;146.52;;;69.25;;
21091;SDS011;10704;42.678;23.288;2023-12-20T11:26:56;143.90;;;71.15;;
21091;SDS011;10704;42.678;23.288;2023-12-20T11:29:32;147.60;;;72.70;;
21091;SDS011;10704;42.678;23.288;2023-12-20T11:32:44;138.77;;;70.65;;
21091;SDS011;10704;42.678;23.288;2023-12-20T11:34:55;144.82;;;70.40;;
21091;SDS011;10704;42.678;23.288;2023-12-20T11:37:35;150.82;;;72.50;;
21091;SDS011;10704;42.678;23.288;2023-12-20T11:40:08;155.82;;;75.05;;
21091;SDS011;10704;42.678;23.288;2023-12-20T11:42:43;142.60;;;75.05;;
21091;SDS011;10704;42.678;23.288;2023-12-20T11:45:17;145.27;;;74.47;;
21091;SDS011;10704;42.678;23.288;2023-12-20T11:47:51;159.02;;;75.57;;
21091;SDS011;10704;42.678;23.288;2023-12-20T11:50:24;151.18;;;73.38;;
21091;SDS011;10704;42.678;23.288;2023-12-20T11:52:51;148.25;;;71.55;;
21091;SDS011;10704;42.678;23.288;2023-12-20T11:55:24;135.75;;;69.07;;
21091;SDS011;10704;42.678;23.288;2023-12-20T11:57:50;138.52;;;65.05;;
21091;SDS011;10704;42.678;23.288;2023-12-20T12:00:17;119.43;;;61.50;;
21091;SDS011;10704;42.678;23.288;2023-12-20T12:02:56;115.03;;;56.47;;
21091;SDS011;10704;42.678;23.288;2023-12-20T12:05:30;120.45;;;59.53;;
21091;SDS011;10704;42.678;23.288;2023-12-20T12:07:58;105.68;;;55.70;;
21091;SDS011;10704;42.678;23.288;2023-12-20T12:10:26;107.32;;;54.90;;
21091;SDS011;10704;42.678;23.288;2023-12-20T12:12:55;111.03;;;56.33;;
21091;SDS011;10704;42.678;23.288;2023-12-20T12:15:26;101.50;;;53.88;;
21091;SDS011;10704;42.678;23.288;2023-12-20T12:17:56;110.15;;;55.15;;
21091;SDS011;10704;42.678;23.288;2023-12-20T12:20:24;104.35;;;50.72;;
21091;SDS011;10704;42.678;23.288;2023-12-20T12:23:02;104.05;;;50.58;;
21091;SDS011;10704;42.678;23.288;2023-12-20T12:25:31;93.55;;;49.45;;
21091;SDS011;10704;42.678;23.288;2023-12-20T12:28:03;97.07;;;49.05;;
21091;SDS011;10704;42.678;23.288;2023-12-20T12:30:38;99.80;;;51.60;;
21091;SDS011;10704;42.678;23.288;2023-12-20T12:33:04;93.97;;;49.58;;
21091;SDS011;10704;42.678;23.288;2023-12-20T12:35:36;102.95;;;50.97;;
21091;SDS011;10704;42.678;23.288;2023-12-20T12:38:08;103.28;;;51.25;;
21091;SDS011;10704;42.678;23.288;2023-12-20T12:40:37;101.35;;;51.40;;
21091;SDS011;10704;42.678;23.288;2023-12-20T12:43:05;110.38;;;55.20;;
21091;SDS011;10704;42.678;23.288;2023-12-20T12:45:32;114.93;;;56.50;;
21091;SDS011;10704;42.678;23.288;2023-12-20T12:48:02;109.95;;;55.40;;
21091;SDS011;10704;42.678;23.288;2023-12-20T12:50:31;122.25;;;58.95;;
21091;SDS011;10704;42.678;23.288;2023-12-20T12:53:02;121.30;;;59.78;;
21091;SDS011;10704;42.678;23.288;2023-12-20T12:55:31;119.20;;;59.42;;
21091;SDS011;10704;42.678;23.288;2023-12-20T12:58:00;123.93;;;61.28;;
21091;SDS011;10704;42.678;23.288;2023-12-20T13:00:32;121.13;;;59.92;;
21091;SDS011;10704;42.678;23.288;2023-12-20T13:03:00;125.70;;;62.22;;
21091;SDS011;10704;42.678;23.288;2023-12-20T13:05:32;119.97;;;58.72;;
21091;SDS011;10704;42.678;23.288;2023-12-20T13:08:05;132.10;;;61.13;;
21091;SDS011;10704;42.678;23.288;2023-12-20T13:10:31;126.40;;;60.90;;
21091;SDS011;10704;42.678;23.288;2023-12-20T13:13:05;117.63;;;60.33;;
21091;SDS011;10704;42.678;23.288;2023-12-20T13:15:35;131.98;;;63.15;;
21091;SDS011;10704;42.678;23.288;2023-12-20T13:18:03;131.13;;;60.63;;
21091;SDS011;10704;42.678;23.288;2023-12-20T13:20:31;125.75;;;61.83;;
21091;SDS011;10704;42.678;23.288;2023-12-20T13:22:59;126.45;;;60.90;;
21091;SDS011;10704;42.678;23.288;2023-12-20T13:25:28;129.02;;;59.47;;
21091;SDS011;10704;42.678;23.288;2023-12-20T13:27:56;124.55;;;63.03;;
21091;SDS011;10704;42.678;23.288;2023-12-20T13:30:38;128.48;;;59.20;;
21091;SDS011;10704;42.678;23.288;2023-12-20T13:33:09;125.43;;;61.55;;
21091;SDS011;10704;42.678;23.288;2023-12-20T13:35:42;125.95;;;59.08;;
21091;SDS011;10704;42.678;23.288;2023-12-20T13:38:13;124.50;;;59.20;;
21091;SDS011;10704;42.678;23.288;2023-12-20T13:40:40;120.80;;;59.33;;
21091;SDS011;10704;42.678;23.288;2023-12-20T13:43:06;127.43;;;56.60;;
21091;SDS011;10704;42.678;23.288;2023-12-20T13:45:39;132.50;;;58.85;;
21091;SDS011;10704;42.678;23.288;2023-12-20T13:48:06;122.72;;;60.38;;
21091;SDS011;10704;42.678;23.288;2023-12-20T13:50:33;128.35;;;59.70;;
21091;SDS011;10704;42.678;23.288;2023-12-20T13:53:01;134.80;;;61.72;;
21091;SDS011;10704;42.678;23.288;2023-12-20T13:55:30;127.65;;;57.22;;
21091;SDS011;10704;42.678;23.288;2023-12-20T13:57:59;130.88;;;58.67;;
21091;SDS011;10704;42.678;23.288;2023-12-20T14:00:27;128.85;;;59.65;;
21091;SDS011;10704;42.678;23.288;2023-12-20T14:02:56;127.20;;;59.83;;
21091;SDS011;10704;42.678;23.288;2023-12-20T14:05:23;123.72;;;56.75;;
21091;SDS011;10704;42.678;23.288;2023-12-20T14:07:58;132.63;;;60.92;;
21091;SDS011;10704;42.678;23.288;2023-12-20T14:10:26;123.93;;;57.30;;
21091;SDS011;10704;42.678;23.288;2023-12-20T14:12:54;126.97;;;59.13;;
21091;SDS011;10704;42.678;23.288;2023-12-20T14:15:22;131.93;;;59.22;;
21091;SDS011;10704;42.678;23.288;2023-12-20T14:17:55;126.15;;;59.30;;